createdAt,value
2019-05-21T00:01:46.074Z,194.03
2019-05-21T00:04:27.529Z,179.77
2019-05-21T00:06:45.553Z,166.10
2019-05-21T00:09:14.310Z,162.63
2019-05-21T00:11:43.062Z,175.70
2019-05-21T00:14:12.390Z,192.93
2019-05-21T00:16:41.238Z,185.17
2019-05-21T00:19:09.990Z,185.47
2019-05-21T00:21:38.786Z,182.83
2019-05-21T00:24:07.862Z,192.13
2019-05-21T00:26:36.621Z,186.27
2019-05-21T00:29:41.760Z,187.13
2019-05-21T00:32:46.334Z,189.10
2019-05-21T00:35:52.759Z,215.47
2019-05-21T00:38:57.613Z,199.80
2019-05-21T00:42:02.376Z,220.70
2019-05-21T00:44:33.790Z,211.23
2019-05-21T00:47:05.226Z,244.53
2019-05-21T00:49:34.034Z,245.83
2019-05-21T00:52:07.781Z,239.50
2019-05-21T00:54:33.194Z,234.90
2019-05-21T00:57:02.271Z,207.47
2019-05-21T00:59:31.021Z,233.20
2019-05-21T01:01:59.774Z,212.50
2019-05-21T01:04:28.567Z,229.67
2019-05-21T01:06:57.318Z,233.20
2019-05-21T01:09:26.074Z,253.03
2019-05-21T01:11:54.878Z,236.63
2019-05-21T01:14:23.630Z,220.27
2019-05-21T01:16:52.459Z,237.33
2019-05-21T01:19:21.574Z,228.63
2019-05-21T01:21:50.334Z,219.90
2019-05-21T01:24:19.081Z,231.13
2019-05-21T01:26:48.249Z,212.70
2019-05-21T01:29:16.942Z,220.93
2019-05-21T01:31:45.980Z,206.90
2019-05-21T01:34:14.826Z,227.03
2019-05-21T01:36:43.891Z,225.63
2019-05-21T01:39:12.639Z,221.50
2019-05-21T01:41:41.474Z,216.03
2019-05-21T01:44:10.226Z,192.50
2019-05-21T01:46:39.259Z,200.17
2019-05-21T01:49:08.058Z,203.00
2019-05-21T01:51:36.818Z,175.77
2019-05-21T01:54:05.566Z,227.83
2019-05-21T01:56:34.362Z,184.47
2019-05-21T01:59:03.415Z,187.83
2019-05-21T02:01:32.167Z,199.30
2019-05-21T02:04:00.972Z,191.53
2019-05-21T02:06:29.794Z,203.60
2019-05-21T02:08:58.629Z,208.07
2019-05-21T02:11:27.426Z,200.83
2019-05-21T02:13:56.179Z,187.20
2019-05-21T02:16:25.394Z,190.27
2019-05-21T02:18:54.259Z,198.10
2019-05-21T02:21:23.006Z,199.53
2019-05-21T02:23:52.130Z,193.60
2019-05-21T02:26:20.899Z,200.60
2019-05-21T02:28:49.650Z,184.87
2019-05-21T02:31:18.416Z,175.17
2019-05-21T02:33:47.202Z,162.07
2019-05-21T02:36:15.954Z,166.17
2019-05-21T02:38:44.792Z,139.23
2019-05-21T02:41:13.659Z,133.23
2019-05-21T02:43:42.417Z,144.03
2019-05-21T02:46:11.482Z,132.83
2019-05-21T02:48:40.278Z,122.10
2019-05-21T02:51:09.037Z,125.73
2019-05-21T02:53:37.851Z,129.20
2019-05-21T02:56:06.650Z,123.13
2019-05-21T02:58:35.695Z,120.30
2019-05-21T03:01:17.748Z,125.40
2019-05-21T03:03:45.766Z,109.90
2019-05-21T03:06:15.132Z,115.97
2019-05-21T03:08:44.038Z,108.70
2019-05-21T03:11:13.102Z,102.37
2019-05-21T03:13:42.014Z,97.80
2019-05-21T03:16:10.780Z,104.37
2019-05-21T03:18:39.528Z,103.40
2019-05-21T03:21:08.353Z,108.40
2019-05-21T03:23:37.218Z,107.23
2019-05-21T03:26:06.292Z,88.73
2019-05-21T03:28:35.635Z,97.27
2019-05-21T03:31:04.434Z,86.17
2019-05-21T03:33:33.500Z,91.53
2019-05-21T03:36:02.310Z,86.83
2019-05-21T03:38:31.495Z,85.10
2019-05-21T03:41:00.269Z,92.00
2019-05-21T03:43:28.998Z,93.67
2019-05-21T03:45:57.786Z,79.73
2019-05-21T03:48:27.082Z,75.43
2019-05-21T03:50:55.827Z,80.07
2019-05-21T03:53:24.909Z,75.20
2019-05-21T03:55:53.653Z,71.57
2019-05-21T03:58:22.413Z,70.63
2019-05-21T04:00:51.194Z,74.07
2019-05-21T04:03:19.961Z,78.60
2019-05-21T04:05:50.043Z,77.60
2019-05-21T04:08:20.639Z,68.97
2019-05-21T04:10:49.610Z,72.17
2019-05-21T04:13:18.361Z,79.17
2019-05-21T04:16:00.922Z,74.43
2019-05-21T04:18:34.068Z,67.93
2019-05-21T04:21:02.821Z,64.57
2019-05-21T04:23:31.613Z,64.67
2019-05-21T04:26:00.364Z,58.60
2019-05-21T04:28:29.119Z,65.00
2019-05-21T04:30:57.912Z,71.90
2019-05-21T04:33:26.664Z,64.77
2019-05-21T04:35:55.830Z,61.30
2019-05-21T04:38:24.644Z,64.53
2019-05-21T04:40:53.394Z,66.67
2019-05-21T04:43:22.132Z,54.70
2019-05-21T04:45:50.915Z,47.90
2019-05-21T04:48:19.670Z,41.83
2019-05-21T04:50:49.233Z,41.63
2019-05-21T04:53:19.507Z,38.27
2019-05-21T04:55:48.333Z,39.77
2019-05-21T04:58:19.032Z,37.50
2019-05-21T05:00:47.821Z,40.53
2019-05-21T05:03:16.631Z,46.73
2019-05-21T05:05:45.387Z,45.73
2019-05-21T05:08:15.861Z,44.87
2019-05-21T05:10:44.902Z,48.47
2019-05-21T05:13:13.951Z,56.70
2019-05-21T05:15:43.014Z,46.33
2019-05-21T05:18:11.766Z,46.10
2019-05-21T05:20:40.510Z,42.63
2019-05-21T05:23:09.341Z,41.87
2019-05-21T05:25:38.093Z,38.73
2019-05-21T05:28:06.866Z,42.77
2019-05-21T05:30:35.836Z,41.63
2019-05-21T05:33:04.583Z,40.07
2019-05-21T05:35:33.619Z,40.47
2019-05-21T05:38:02.414Z,36.57
2019-05-21T05:40:31.162Z,31.17
2019-05-21T05:42:59.915Z,29.87
2019-05-21T05:45:28.830Z,29.23
2019-05-21T05:47:57.587Z,29.17
2019-05-21T05:50:33.703Z,27.83
2019-05-21T05:53:02.528Z,26.60
2019-05-21T05:55:31.268Z,30.30
2019-05-21T05:58:00.418Z,22.30
2019-05-21T06:00:29.239Z,27.03
2019-05-21T06:02:57.994Z,19.23
2019-05-21T06:05:26.787Z,22.17
2019-05-21T06:07:59.719Z,18.30
2019-05-21T06:10:25.937Z,23.17
2019-05-21T06:12:55.064Z,19.33
2019-05-21T06:15:23.891Z,20.17
2019-05-21T06:17:52.923Z,18.83
2019-05-21T06:20:21.814Z,21.80
2019-05-21T06:22:50.854Z,20.90
2019-05-21T06:25:21.083Z,19.77
2019-05-21T06:27:50.474Z,17.97
2019-05-21T06:30:19.427Z,16.53
2019-05-21T06:32:50.593Z,19.80
2019-05-21T06:35:20.722Z,19.57
2019-05-21T06:37:50.102Z,17.07
2019-05-21T06:40:19.214Z,17.80
2019-05-21T06:42:47.999Z,15.77
2019-05-21T06:45:18.367Z,21.23
2019-05-21T06:47:47.114Z,16.33
2019-05-21T06:50:15.907Z,15.43
2019-05-21T06:52:44.659Z,13.60
2019-05-21T06:55:13.403Z,13.37
2019-05-21T06:57:42.217Z,12.57
2019-05-21T07:00:12.306Z,7.57
2019-05-21T07:02:41.450Z,7.70
2019-05-21T07:05:10.920Z,7.10
2019-05-21T07:07:39.953Z,4.90
2019-05-21T07:10:09.174Z,4.87
2019-05-21T07:12:37.971Z,5.97
2019-05-21T07:15:07.811Z,7.17
2019-05-21T07:17:36.556Z,4.63
2019-05-21T07:20:09.146Z,4.83
2019-05-21T07:22:37.901Z,7.17
2019-05-21T07:25:06.966Z,7.63
2019-05-21T07:27:36.019Z,7.40
2019-05-21T07:30:07.437Z,6.13
2019-05-21T07:32:36.316Z,5.50
2019-05-21T07:35:07.441Z,5.03
2019-05-21T07:37:36.194Z,5.23
2019-05-21T07:40:06.055Z,4.67
2019-05-21T07:42:35.161Z,4.67
2019-05-21T07:45:05.499Z,3.33
2019-05-21T07:47:34.573Z,3.00
2019-05-21T07:50:03.623Z,3.47
2019-05-21T07:52:32.366Z,3.27
2019-05-21T07:55:01.108Z,5.67
2019-05-21T07:57:29.898Z,3.13
2019-05-21T07:59:58.642Z,3.50
2019-05-21T08:02:28.537Z,4.53
2019-05-21T08:04:57.329Z,4.30
2019-05-21T08:07:26.086Z,2.90
2019-05-21T08:09:54.831Z,2.87
2019-05-21T08:12:37.849Z,3.00
2019-05-21T08:14:54.074Z,3.87
2019-05-21T08:17:24.289Z,3.13
2019-05-21T08:19:54.195Z,2.70
2019-05-21T08:22:23.223Z,2.93
2019-05-21T08:24:52.712Z,5.43
2019-05-21T08:27:21.607Z,5.20
2019-05-21T08:29:51.367Z,3.60
2019-05-21T08:32:20.115Z,5.27
2019-05-21T08:34:49.182Z,4.67
2019-05-21T08:37:17.926Z,3.83
2019-05-21T08:39:46.739Z,3.73
2019-05-21T08:42:16.974Z,5.20
2019-05-21T08:44:45.712Z,4.20
2019-05-21T08:47:14.814Z,6.33
2019-05-21T08:49:44.821Z,3.73
2019-05-21T08:52:13.822Z,5.03
2019-05-21T08:54:55.851Z,4.50
2019-05-21T08:57:22.478Z,3.50
2019-05-21T08:59:52.513Z,6.07
2019-05-21T09:02:21.751Z,8.07
2019-05-21T09:04:50.568Z,6.13
2019-05-21T09:07:19.417Z,9.90
2019-05-21T09:09:50.520Z,11.37
2019-05-21T09:12:18.720Z,8.93
2019-05-21T09:14:47.750Z,10.47
2019-05-21T09:17:16.538Z,12.87
2019-05-21T09:19:45.287Z,12.50
2019-05-21T09:22:14.035Z,15.97
2019-05-21T09:24:43.119Z,18.90
2019-05-21T09:27:11.945Z,16.47
2019-05-21T09:29:40.694Z,24.23
2019-05-21T09:32:09.859Z,17.70
2019-05-21T09:34:48.070Z,23.87
2019-05-21T09:37:19.197Z,18.17
2019-05-21T09:39:40.094Z,17.17
2019-05-21T09:42:08.843Z,21.40
2019-05-21T09:44:37.603Z,19.10
2019-05-21T09:47:06.393Z,13.77
2019-05-21T09:49:35.464Z,18.63
2019-05-21T09:52:04.595Z,13.73
2019-05-21T09:54:33.662Z,16.80
2019-05-21T09:57:03.878Z,10.63
2019-05-21T09:59:43.528Z,10.43
2019-05-21T10:02:25.809Z,9.23
2019-05-21T10:04:54.603Z,13.80
2019-05-21T10:07:39.017Z,13.37
2019-05-21T10:09:56.517Z,13.63
2019-05-21T10:12:27.086Z,13.23
2019-05-21T10:14:56.123Z,19.00
2019-05-21T10:17:26.330Z,18.10
2019-05-21T10:19:58.775Z,18.60
2019-05-21T10:22:26.632Z,21.23
2019-05-21T10:24:55.695Z,15.63
2019-05-21T10:27:24.486Z,14.00
2019-05-21T10:29:54.325Z,16.10
2019-05-21T10:32:23.584Z,19.57
2019-05-21T10:34:52.534Z,17.37
2019-05-21T10:37:21.293Z,18.30
2019-05-21T10:39:52.364Z,20.47
2019-05-21T10:42:21.150Z,15.97
2019-05-21T10:44:49.894Z,21.27
2019-05-21T10:47:19.005Z,23.23
2019-05-21T10:49:48.391Z,15.67
2019-05-21T10:52:17.151Z,18.43
2019-05-21T10:54:46.183Z,20.37
2019-05-21T10:57:14.978Z,18.33
2019-05-21T10:59:43.752Z,16.63
2019-05-21T11:02:31.787Z,17.83
2019-05-21T11:05:02.491Z,28.87
2019-05-21T11:07:31.235Z,21.73
2019-05-21T11:10:00.227Z,17.90
2019-05-21T11:12:28.979Z,25.63
2019-05-21T11:14:57.731Z,20.47
2019-05-21T11:17:26.590Z,18.13
2019-05-21T11:19:55.343Z,19.10
2019-05-21T11:22:24.470Z,25.53
2019-05-21T11:24:53.339Z,15.97
2019-05-21T11:27:22.426Z,18.90
2019-05-21T11:29:53.314Z,17.07
2019-05-21T11:32:22.494Z,22.90
2019-05-21T11:34:51.263Z,22.87
2019-05-21T11:37:20.025Z,20.57
2019-05-21T11:39:52.362Z,19.37
2019-05-21T11:42:21.114Z,15.40
2019-05-21T11:44:49.868Z,18.03
2019-05-21T11:47:18.730Z,20.27
2019-05-21T11:49:47.482Z,21.20
2019-05-21T11:52:16.237Z,19.67
2019-05-21T11:54:45.022Z,18.90
2019-05-21T11:57:13.772Z,26.87
2019-05-21T11:59:42.590Z,29.33
2019-05-21T12:02:11.553Z,28.60
2019-05-21T12:04:40.575Z,23.33
2019-05-21T12:07:09.394Z,20.33
2019-05-21T12:09:38.217Z,24.90
2019-05-21T12:12:06.955Z,18.63
2019-05-21T12:14:35.721Z,24.93
2019-05-21T12:17:04.630Z,21.30
2019-05-21T12:19:33.366Z,25.93
2019-05-21T12:22:02.110Z,25.63
2019-05-21T12:24:30.915Z,24.30
2019-05-21T12:26:59.731Z,25.20
2019-05-21T12:29:28.763Z,24.50
2019-05-21T12:31:57.562Z,21.80
2019-05-21T12:34:26.340Z,29.93
2019-05-21T12:36:55.059Z,30.50
2019-05-21T12:39:23.850Z,21.00
2019-05-21T12:41:52.609Z,22.87
2019-05-21T12:44:21.535Z,27.27
2019-05-21T12:46:50.362Z,29.77
2019-05-21T12:49:19.112Z,24.23
2019-05-21T12:51:47.883Z,22.27
2019-05-21T12:54:16.674Z,21.37
2019-05-21T12:56:45.425Z,23.13
2019-05-21T12:59:16.811Z,17.77
2019-05-21T13:01:45.645Z,23.87
2019-05-21T13:04:14.375Z,29.30
2019-05-21T13:06:43.520Z,21.53
2019-05-21T13:09:12.412Z,22.97
2019-05-21T13:11:41.142Z,18.60
2019-05-21T13:14:14.868Z,32.60
2019-05-21T13:16:40.651Z,28.07
2019-05-21T13:19:11.329Z,27.20
2019-05-21T13:21:39.911Z,21.33
2019-05-21T13:24:08.783Z,26.53
2019-05-21T13:26:37.530Z,24.23
2019-05-21T13:29:06.355Z,21.43
2019-05-21T13:31:35.476Z,25.97
2019-05-21T13:34:05.667Z,19.47
2019-05-21T13:36:34.423Z,33.60
2019-05-21T13:39:05.216Z,26.73
2019-05-21T13:41:35.567Z,36.90
2019-05-21T13:44:04.482Z,37.10
2019-05-21T13:46:35.553Z,38.43
2019-05-21T13:49:05.404Z,29.73
2019-05-21T13:51:35.154Z,29.93
2019-05-21T13:54:03.947Z,33.07
2019-05-21T13:56:33.363Z,36.60
2019-05-21T13:59:02.112Z,36.97
2019-05-21T14:01:40.662Z,34.40
2019-05-21T14:04:02.739Z,36.13
2019-05-21T14:06:31.929Z,36.10
2019-05-21T14:09:00.663Z,36.80
2019-05-21T14:11:30.366Z,34.73
2019-05-21T14:13:59.231Z,40.03
2019-05-21T14:16:28.016Z,38.43
2019-05-21T14:18:56.787Z,40.20
2019-05-21T14:21:25.842Z,47.07
2019-05-21T14:23:54.748Z,55.70
2019-05-21T14:26:23.499Z,37.97
2019-05-21T14:28:52.457Z,41.97
2019-05-21T14:31:21.526Z,44.40
2019-05-21T14:33:50.279Z,37.73
2019-05-21T14:36:19.025Z,37.97
2019-05-21T14:38:47.842Z,45.30
2019-05-21T14:41:17.007Z,36.97
2019-05-21T14:43:45.686Z,46.03
2019-05-21T14:46:14.550Z,40.80
2019-05-21T14:48:43.299Z,36.50
2019-05-21T14:51:13.507Z,35.53
2019-05-21T14:53:42.818Z,42.40
2019-05-21T14:56:11.573Z,40.67
2019-05-21T14:58:40.396Z,57.07
2019-05-21T15:01:09.275Z,41.03
2019-05-21T15:03:38.028Z,44.50
2019-05-21T15:06:06.793Z,46.10
2019-05-21T15:08:35.574Z,38.13
2019-05-21T15:11:04.531Z,37.97
2019-05-21T15:13:33.351Z,42.70
2019-05-21T15:16:02.487Z,40.60
2019-05-21T15:18:31.599Z,46.47
2019-05-21T15:21:02.075Z,47.17
2019-05-21T15:23:30.887Z,47.47
2019-05-21T15:26:00.121Z,45.00
2019-05-21T15:28:31.140Z,54.70
2019-05-21T15:30:59.976Z,52.33
2019-05-21T15:33:28.726Z,54.17
2019-05-21T15:35:57.483Z,47.77
2019-05-21T15:38:26.646Z,45.23
2019-05-21T15:41:09.750Z,49.03
2019-05-21T15:43:26.351Z,43.27
2019-05-21T15:45:55.217Z,55.37
2019-05-21T15:48:26.733Z,38.77
2019-05-21T15:50:54.683Z,39.40
2019-05-21T15:53:23.482Z,42.03
2019-05-21T15:55:52.517Z,47.63
2019-05-21T15:58:21.274Z,39.80
2019-05-21T16:00:50.134Z,40.93
2019-05-21T16:03:18.975Z,35.53
2019-05-21T16:05:47.774Z,43.70
2019-05-21T16:08:16.577Z,35.23
2019-05-21T16:10:45.319Z,39.53
2019-05-21T16:13:14.472Z,35.63
2019-05-21T16:15:43.336Z,41.20
2019-05-21T16:18:12.431Z,40.37
2019-05-21T16:20:42.629Z,41.60
2019-05-21T16:23:13.333Z,39.47
2019-05-21T16:25:43.235Z,38.97
2019-05-21T16:28:13.621Z,39.67
2019-05-21T16:30:42.777Z,37.13
2019-05-21T16:33:11.819Z,41.87
2019-05-21T16:35:40.850Z,38.00
2019-05-21T16:38:09.650Z,36.73
2019-05-21T16:40:39.847Z,35.23
2019-05-21T16:43:08.971Z,40.63
2019-05-21T16:45:37.763Z,34.03
2019-05-21T16:48:06.972Z,34.13
2019-05-21T16:50:35.840Z,38.40
2019-05-21T16:53:04.699Z,38.93
2019-05-21T16:55:35.018Z,36.40
2019-05-21T16:58:05.321Z,37.03
2019-05-21T17:00:34.398Z,29.13
2019-05-21T17:03:03.220Z,33.00
2019-05-21T17:05:32.046Z,35.30
2019-05-21T17:08:00.947Z,29.63
2019-05-21T17:10:29.969Z,32.63
2019-05-21T17:12:58.727Z,30.63
2019-05-21T17:15:27.912Z,38.30
2019-05-21T17:17:56.944Z,34.33
2019-05-21T17:20:25.692Z,44.17
2019-05-21T17:22:54.777Z,38.73
2019-05-21T17:25:23.943Z,40.60
2019-05-21T17:27:52.689Z,42.23
2019-05-21T17:30:21.913Z,39.83
2019-05-21T17:32:50.979Z,35.67
2019-05-21T17:35:19.735Z,35.30
2019-05-21T17:37:48.529Z,32.97
2019-05-21T17:40:17.577Z,34.63
2019-05-21T17:42:47.065Z,32.10
2019-05-21T17:45:16.895Z,30.17
2019-05-21T17:47:45.642Z,36.40
2019-05-21T17:50:16.530Z,39.97
2019-05-21T17:52:45.578Z,37.20
2019-05-21T17:55:15.240Z,35.43
2019-05-21T17:57:44.354Z,33.40
2019-05-21T18:00:13.766Z,32.07
2019-05-21T18:02:42.944Z,36.27
2019-05-21T18:05:12.171Z,38.20
2019-05-21T18:07:42.260Z,36.83
2019-05-21T18:10:13.361Z,33.43
2019-05-21T18:12:42.780Z,36.57
2019-05-21T18:15:12.943Z,37.17
2019-05-21T18:17:42.767Z,35.83
2019-05-21T18:20:12.982Z,38.77
2019-05-21T18:22:43.652Z,35.43
2019-05-21T18:25:12.675Z,38.70
2019-05-21T18:27:41.423Z,39.90
2019-05-21T18:30:11.927Z,36.03
2019-05-21T18:32:40.751Z,45.57
2019-05-21T18:35:10.514Z,37.53
2019-05-21T18:37:39.509Z,39.93
2019-05-21T18:40:09.632Z,41.73
2019-05-21T18:42:38.658Z,46.07
2019-05-21T18:45:08.560Z,42.17
2019-05-21T18:47:37.899Z,40.63
2019-05-21T18:50:09.906Z,44.27
2019-05-21T18:52:39.058Z,38.30
2019-05-21T18:55:08.012Z,40.03
2019-05-21T18:57:37.155Z,46.13
2019-05-21T19:00:08.695Z,44.70
2019-05-21T19:02:37.900Z,43.37
2019-05-21T19:05:07.353Z,47.00
2019-05-21T19:07:36.311Z,43.30
2019-05-21T19:10:09.749Z,49.97
2019-05-21T19:12:39.027Z,44.53
2019-05-21T19:15:08.814Z,45.77
2019-05-21T19:17:37.618Z,51.87
2019-05-21T19:20:08.182Z,43.03
2019-05-21T19:22:37.286Z,47.10
2019-05-21T19:25:07.639Z,54.30
2019-05-21T19:27:36.462Z,50.67
2019-05-21T19:30:07.787Z,48.67
2019-05-21T19:32:36.501Z,48.73
2019-05-21T19:35:08.865Z,51.03
2019-05-21T19:37:37.655Z,49.17
2019-05-21T19:40:07.256Z,52.73
2019-05-21T19:42:36.003Z,56.77
2019-05-21T19:45:06.920Z,52.23
2019-05-21T19:47:37.038Z,50.40
2019-05-21T19:50:09.467Z,52.23
2019-05-21T19:52:38.288Z,57.27
2019-05-21T19:55:07.834Z,52.63
2019-05-21T19:57:38.461Z,63.40
2019-05-21T20:00:09.370Z,55.27
2019-05-21T20:02:38.934Z,59.57
2019-05-21T20:05:08.736Z,56.67
2019-05-21T20:07:37.807Z,53.47
2019-05-21T20:10:10.073Z,57.70
2019-05-21T20:12:38.998Z,51.57
2019-05-21T20:15:09.218Z,50.93
2019-05-21T20:17:40.026Z,48.17
2019-05-21T20:20:11.750Z,48.70
2019-05-21T20:22:42.533Z,49.23
2019-05-21T20:25:12.750Z,46.03
2019-05-21T20:27:41.898Z,46.80
2019-05-21T20:30:13.194Z,47.13
2019-05-21T20:32:42.972Z,45.73
2019-05-21T20:35:15.316Z,45.73
2019-05-21T20:37:45.088Z,47.30
2019-05-21T20:40:15.747Z,46.83
2019-05-21T20:42:44.866Z,47.47
2019-05-21T20:45:15.612Z,45.47
2019-05-21T20:47:46.328Z,45.77
2019-05-21T20:50:17.193Z,42.63
2019-05-21T20:52:46.905Z,45.37
2019-05-21T20:55:17.231Z,46.50
2019-05-21T20:57:46.939Z,50.90
2019-05-21T21:00:18.966Z,50.53
2019-05-21T21:02:49.259Z,44.73
2019-05-21T21:05:18.008Z,45.93
2019-05-21T21:07:47.562Z,51.00
2019-05-21T21:10:17.003Z,47.53
2019-05-21T21:12:48.471Z,48.77
2019-05-21T21:15:17.326Z,49.47
2019-05-21T21:17:46.358Z,45.93
2019-05-21T21:20:15.107Z,49.60
2019-05-21T21:22:44.188Z,46.43
2019-05-21T21:25:14.310Z,49.40
2019-05-21T21:27:43.066Z,48.77
2019-05-21T21:30:12.270Z,44.57
2019-05-21T21:32:41.193Z,48.07
2019-05-21T21:35:10.819Z,44.83
2019-05-21T21:37:39.810Z,51.07
2019-05-21T21:40:14.946Z,48.17
2019-05-21T21:42:44.295Z,45.80
2019-05-21T21:45:14.298Z,47.60
2019-05-21T21:47:43.726Z,47.73
2019-05-21T21:50:13.936Z,46.47
2019-05-21T21:52:43.402Z,50.43
2019-05-21T21:55:12.825Z,51.77
2019-05-21T21:57:43.622Z,52.37
2019-05-21T22:00:33.427Z,55.03
2019-05-21T22:03:06.385Z,55.43
2019-05-21T22:05:35.334Z,53.30
2019-05-21T22:08:04.134Z,57.97
2019-05-21T22:10:32.978Z,52.80
2019-05-21T22:13:02.986Z,52.07
2019-05-21T22:15:31.878Z,54.53
2019-05-21T22:18:00.703Z,56.00
2019-05-21T22:20:30.304Z,58.47
2019-05-21T22:22:59.554Z,55.13
2019-05-21T22:25:28.594Z,54.23
2019-05-21T22:27:57.513Z,58.07
2019-05-21T22:30:28.124Z,55.30
2019-05-21T22:32:57.160Z,55.33
2019-05-21T22:35:25.906Z,58.27
2019-05-21T22:37:54.717Z,57.83
2019-05-21T22:40:23.550Z,61.80
2019-05-21T22:42:52.309Z,58.13
2019-05-21T22:45:21.591Z,57.67
2019-05-21T22:47:51.497Z,54.03
2019-05-21T22:50:21.342Z,62.80
2019-05-21T22:52:50.474Z,59.37
2019-05-21T22:55:19.330Z,60.90
2019-05-21T22:57:48.046Z,62.07
2019-05-21T23:00:17.504Z,62.47
2019-05-21T23:02:46.769Z,59.30
2019-05-21T23:05:15.994Z,57.63
2019-05-21T23:07:44.884Z,60.50
2019-05-21T23:10:15.286Z,57.17
2019-05-21T23:12:44.042Z,57.47
2019-05-21T23:15:24.486Z,53.10
2019-05-21T23:17:44.208Z,57.33
2019-05-21T23:20:14.926Z,55.73
2019-05-21T23:22:45.366Z,50.93
2019-05-21T23:25:14.218Z,57.37
2019-05-21T23:27:43.445Z,56.20
2019-05-21T23:30:14.876Z,57.23
2019-05-21T23:32:44.226Z,54.67
2019-05-21T23:35:14.738Z,55.63
2019-05-21T23:37:46.565Z,55.70
2019-05-21T23:40:15.674Z,60.80
2019-05-21T23:42:44.695Z,56.80
2019-05-21T23:45:15.161Z,57.77
2019-05-21T23:47:43.918Z,64.13
2019-05-21T23:50:15.386Z,63.93
2019-05-21T23:52:44.954Z,59.67
2019-05-21T23:55:14.819Z,55.73
2019-05-21T23:57:43.961Z,55.87
